sensor_id;sensor_type;location;lat;lon;timestamp;P1;durP1;ratioP1;P2;durP2;ratioP2
61709;SDS011;73500;51.494;5.386;2024-02-14T00:01:14;3.17;;;0.93;;
61709;SDS011;73500;51.494;5.386;2024-02-14T00:03:39;2.08;;;0.80;;
61709;SDS011;73500;51.494;5.386;2024-02-14T00:06:05;2.00;;;0.90;;
61709;SDS011;73500;51.494;5.386;2024-02-14T00:08:30;1.80;;;0.90;;
61709;SDS011;73500;51.494;5.386;2024-02-14T00:10:56;2.28;;;1.00;;
61709;SDS011;73500;51.494;5.386;2024-02-14T00:13:21;2.50;;;1.00;;
61709;SDS011;73500;51.494;5.386;2024-02-14T00:15:47;2.20;;;1.10;;
61709;SDS011;73500;51.494;5.386;2024-02-14T00:18:13;2.83;;;1.10;;
61709;SDS011;73500;51.494;5.386;2024-02-14T00:20:40;2.60;;;1.05;;
61709;SDS011;73500;51.494;5.386;2024-02-14T00:23:05;2.88;;;1.08;;
61709;SDS011;73500;51.494;5.386;2024-02-14T00:25:31;1.50;;;0.80;;
61709;SDS011;73500;51.494;5.386;2024-02-14T00:27:56;1.73;;;0.90;;
61709;SDS011;73500;51.494;5.386;2024-02-14T00:30:22;2.15;;;1.00;;
61709;SDS011;73500;51.494;5.386;2024-02-14T00:32:50;2.00;;;0.73;;
61709;SDS011;73500;51.494;5.386;2024-02-14T00:35:15;2.55;;;0.90;;
61709;SDS011;73500;51.494;5.386;2024-02-14T00:37:41;1.67;;;0.80;;
61709;SDS011;73500;51.494;5.386;2024-02-14T00:40:06;1.70;;;0.90;;
61709;SDS011;73500;51.494;5.386;2024-02-14T00:42:32;4.78;;;1.13;;
61709;SDS011;73500;51.494;5.386;2024-02-14T00:44:57;3.47;;;1.20;;
61709;SDS011;73500;51.494;5.386;2024-02-14T00:47:23;2.53;;;0.90;;
61709;SDS011;73500;51.494;5.386;2024-02-14T00:49:48;2.78;;;1.10;;
61709;SDS011;73500;51.494;5.386;2024-02-14T00:52:13;2.60;;;1.00;;
61709;SDS011;73500;51.494;5.386;2024-02-14T00:54:39;3.30;;;1.10;;
61709;SDS011;73500;51.494;5.386;2024-02-14T00:57:04;2.95;;;0.90;;
61709;SDS011;73500;51.494;5.386;2024-02-14T00:59:30;3.65;;;1.00;;
61709;SDS011;73500;51.494;5.386;2024-02-14T01:01:55;2.05;;;0.90;;
61709;SDS011;73500;51.494;5.386;2024-02-14T01:04:20;2.70;;;1.10;;
61709;SDS011;73500;51.494;5.386;2024-02-14T01:06:46;2.78;;;1.00;;
61709;SDS011;73500;51.494;5.386;2024-02-14T01:09:13;1.48;;;0.90;;
61709;SDS011;73500;51.494;5.386;2024-02-14T01:11:38;2.40;;;1.00;;
61709;SDS011;73500;51.494;5.386;2024-02-14T01:14:03;1.88;;;0.80;;
61709;SDS011;73500;51.494;5.386;2024-02-14T01:16:29;1.95;;;0.88;;
61709;SDS011;73500;51.494;5.386;2024-02-14T01:18:54;1.67;;;0.80;;
61709;SDS011;73500;51.494;5.386;2024-02-14T01:21:19;2.92;;;1.00;;
61709;SDS011;73500;51.494;5.386;2024-02-14T01:23:45;3.95;;;1.10;;
61709;SDS011;73500;51.494;5.386;2024-02-14T01:26:10;2.13;;;0.90;;
61709;SDS011;73500;51.494;5.386;2024-02-14T01:28:35;2.05;;;0.93;;
61709;SDS011;73500;51.494;5.386;2024-02-14T01:31:01;3.15;;;1.08;;
61709;SDS011;73500;51.494;5.386;2024-02-14T01:33:26;2.13;;;1.05;;
61709;SDS011;73500;51.494;5.386;2024-02-14T01:35:52;2.10;;;1.00;;
61709;SDS011;73500;51.494;5.386;2024-02-14T01:38:17;1.67;;;0.80;;
61709;SDS011;73500;51.494;5.386;2024-02-14T01:40:43;3.75;;;1.20;;
61709;SDS011;73500;51.494;5.386;2024-02-14T01:43:09;2.63;;;1.05;;
61709;SDS011;73500;51.494;5.386;2024-02-14T01:45:35;2.95;;;1.05;;
61709;SDS011;73500;51.494;5.386;2024-02-14T01:48:01;3.13;;;1.10;;
61709;SDS011;73500;51.494;5.386;2024-02-14T01:50:28;2.25;;;1.00;;
61709;SDS011;73500;51.494;5.386;2024-02-14T01:52:55;2.55;;;1.10;;
61709;SDS011;73500;51.494;5.386;2024-02-14T01:55:24;2.45;;;0.90;;
61709;SDS011;73500;51.494;5.386;2024-02-14T01:57:51;3.47;;;1.20;;
61709;SDS011;73500;51.494;5.386;2024-02-14T02:00:17;2.08;;;0.90;;
61709;SDS011;73500;51.494;5.386;2024-02-14T02:02:44;1.92;;;0.80;;
61709;SDS011;73500;51.494;5.386;2024-02-14T02:05:09;1.85;;;0.93;;
61709;SDS011;73500;51.494;5.386;2024-02-14T02:07:34;2.17;;;0.88;;
61709;SDS011;73500;51.494;5.386;2024-02-14T02:10:01;2.85;;;1.10;;
61709;SDS011;73500;51.494;5.386;2024-02-14T02:12:26;2.05;;;0.90;;
61709;SDS011;73500;51.494;5.386;2024-02-14T02:14:53;2.00;;;1.00;;
61709;SDS011;73500;51.494;5.386;2024-02-14T02:17:18;1.75;;;0.70;;
61709;SDS011;73500;51.494;5.386;2024-02-14T02:19:44;1.83;;;0.80;;
61709;SDS011;73500;51.494;5.386;2024-02-14T02:22:09;3.05;;;1.13;;
61709;SDS011;73500;51.494;5.386;2024-02-14T02:24:35;2.28;;;0.88;;
61709;SDS011;73500;51.494;5.386;2024-02-14T02:27:01;2.30;;;1.00;;
61709;SDS011;73500;51.494;5.386;2024-02-14T02:29:26;2.13;;;0.80;;
61709;SDS011;73500;51.494;5.386;2024-02-14T02:31:52;2.20;;;1.00;;
61709;SDS011;73500;51.494;5.386;2024-02-14T02:34:17;2.58;;;1.05;;
61709;SDS011;73500;51.494;5.386;2024-02-14T02:36:43;1.90;;;0.80;;
61709;SDS011;73500;51.494;5.386;2024-02-14T02:39:08;2.05;;;0.90;;
61709;SDS011;73500;51.494;5.386;2024-02-14T02:41:34;2.13;;;1.13;;
61709;SDS011;73500;51.494;5.386;2024-02-14T02:43:59;3.28;;;1.10;;
61709;SDS011;73500;51.494;5.386;2024-02-14T02:46:26;2.47;;;1.00;;
61709;SDS011;73500;51.494;5.386;2024-02-14T02:48:52;3.97;;;1.10;;
61709;SDS011;73500;51.494;5.386;2024-02-14T02:51:19;2.47;;;1.10;;
61709;SDS011;73500;51.494;5.386;2024-02-14T02:53:45;1.60;;;0.90;;
61709;SDS011;73500;51.494;5.386;2024-02-14T02:56:11;2.20;;;0.90;;
61709;SDS011;73500;51.494;5.386;2024-02-14T02:58:37;2.00;;;1.00;;
61709;SDS011;73500;51.494;5.386;2024-02-14T03:01:07;3.60;;;1.33;;
61709;SDS011;73500;51.494;5.386;2024-02-14T03:03:32;2.78;;;0.95;;
61709;SDS011;73500;51.494;5.386;2024-02-14T03:05:58;2.13;;;0.93;;
61709;SDS011;73500;51.494;5.386;2024-02-14T03:08:24;2.90;;;0.90;;
61709;SDS011;73500;51.494;5.386;2024-02-14T03:10:51;2.08;;;0.93;;
61709;SDS011;73500;51.494;5.386;2024-02-14T03:13:16;2.33;;;0.95;;
61709;SDS011;73500;51.494;5.386;2024-02-14T03:15:42;2.85;;;1.00;;
61709;SDS011;73500;51.494;5.386;2024-02-14T03:18:09;3.08;;;1.20;;
61709;SDS011;73500;51.494;5.386;2024-02-14T03:20:35;2.90;;;1.10;;
61709;SDS011;73500;51.494;5.386;2024-02-14T03:23:01;1.92;;;0.95;;
61709;SDS011;73500;51.494;5.386;2024-02-14T03:25:29;2.45;;;0.98;;
61709;SDS011;73500;51.494;5.386;2024-02-14T03:27:54;2.30;;;1.05;;
61709;SDS011;73500;51.494;5.386;2024-02-14T03:30:22;2.35;;;0.82;;
61709;SDS011;73500;51.494;5.386;2024-02-14T03:32:47;2.05;;;1.00;;
61709;SDS011;73500;51.494;5.386;2024-02-14T03:35:13;2.75;;;1.00;;
61709;SDS011;73500;51.494;5.386;2024-02-14T03:37:40;2.72;;;1.20;;
61709;SDS011;73500;51.494;5.386;2024-02-14T03:40:07;1.80;;;0.80;;
61709;SDS011;73500;51.494;5.386;2024-02-14T03:42:34;1.83;;;0.90;;
61709;SDS011;73500;51.494;5.386;2024-02-14T03:44:59;2.03;;;0.90;;
61709;SDS011;73500;51.494;5.386;2024-02-14T03:47:31;2.28;;;0.93;;
61709;SDS011;73500;51.494;5.386;2024-02-14T03:49:57;2.30;;;1.00;;
61709;SDS011;73500;51.494;5.386;2024-02-14T03:52:23;1.80;;;0.80;;
61709;SDS011;73500;51.494;5.386;2024-02-14T03:54:48;2.38;;;1.02;;
61709;SDS011;73500;51.494;5.386;2024-02-14T03:57:13;2.45;;;1.10;;
61709;SDS011;73500;51.494;5.386;2024-02-14T03:59:39;2.15;;;0.80;;
61709;SDS011;73500;51.494;5.386;2024-02-14T04:02:04;2.75;;;1.10;;
61709;SDS011;73500;51.494;5.386;2024-02-14T04:04:31;2.33;;;1.00;;
61709;SDS011;73500;51.494;5.386;2024-02-14T04:06:58;2.45;;;1.00;;
61709;SDS011;73500;51.494;5.386;2024-02-14T04:09:26;2.50;;;1.10;;
61709;SDS011;73500;51.494;5.386;2024-02-14T04:11:51;2.60;;;1.02;;
61709;SDS011;73500;51.494;5.386;2024-02-14T04:14:16;2.67;;;1.30;;
61709;SDS011;73500;51.494;5.386;2024-02-14T04:16:42;3.10;;;1.10;;
61709;SDS011;73500;51.494;5.386;2024-02-14T04:19:07;3.97;;;1.15;;
61709;SDS011;73500;51.494;5.386;2024-02-14T04:21:33;2.42;;;1.02;;
61709;SDS011;73500;51.494;5.386;2024-02-14T04:23:59;2.25;;;0.98;;
61709;SDS011;73500;51.494;5.386;2024-02-14T04:26:24;3.05;;;1.05;;
61709;SDS011;73500;51.494;5.386;2024-02-14T04:28:50;2.55;;;0.90;;
61709;SDS011;73500;51.494;5.386;2024-02-14T04:31:15;2.70;;;1.00;;
61709;SDS011;73500;51.494;5.386;2024-02-14T04:33:40;2.47;;;1.10;;
61709;SDS011;73500;51.494;5.386;2024-02-14T04:36:06;2.40;;;1.10;;
61709;SDS011;73500;51.494;5.386;2024-02-14T04:38:32;2.15;;;0.93;;
61709;SDS011;73500;51.494;5.386;2024-02-14T04:40:57;2.97;;;1.15;;
61709;SDS011;73500;51.494;5.386;2024-02-14T04:43:23;3.10;;;1.15;;
61709;SDS011;73500;51.494;5.386;2024-02-14T04:45:51;3.72;;;1.20;;
61709;SDS011;73500;51.494;5.386;2024-02-14T04:48:17;2.15;;;0.82;;
61709;SDS011;73500;51.494;5.386;2024-02-14T04:50:42;2.40;;;0.80;;
61709;SDS011;73500;51.494;5.386;2024-02-14T04:53:08;2.03;;;0.93;;
61709;SDS011;73500;51.494;5.386;2024-02-14T04:55:33;2.42;;;1.10;;
61709;SDS011;73500;51.494;5.386;2024-02-14T04:57:59;2.90;;;1.20;;
61709;SDS011;73500;51.494;5.386;2024-02-14T05:00:24;2.60;;;1.00;;
61709;SDS011;73500;51.494;5.386;2024-02-14T05:02:50;2.97;;;1.10;;
61709;SDS011;73500;51.494;5.386;2024-02-14T05:05:16;2.35;;;1.05;;
61709;SDS011;73500;51.494;5.386;2024-02-14T05:07:41;3.03;;;1.08;;
61709;SDS011;73500;51.494;5.386;2024-02-14T05:10:07;3.42;;;1.02;;
61709;SDS011;73500;51.494;5.386;2024-02-14T05:12:32;2.28;;;1.05;;
61709;SDS011;73500;51.494;5.386;2024-02-14T05:14:58;1.92;;;1.00;;
61709;SDS011;73500;51.494;5.386;2024-02-14T05:17:23;2.42;;;1.10;;
61709;SDS011;73500;51.494;5.386;2024-02-14T05:19:49;2.72;;;1.05;;
61709;SDS011;73500;51.494;5.386;2024-02-14T05:22:14;3.10;;;1.10;;
61709;SDS011;73500;51.494;5.386;2024-02-14T05:24:39;2.83;;;1.23;;
61709;SDS011;73500;51.494;5.386;2024-02-14T05:27:05;3.72;;;1.10;;
61709;SDS011;73500;51.494;5.386;2024-02-14T05:29:30;2.65;;;0.95;;
61709;SDS011;73500;51.494;5.386;2024-02-14T05:31:55;2.30;;;0.90;;
61709;SDS011;73500;51.494;5.386;2024-02-14T05:34:21;2.13;;;0.98;;
61709;SDS011;73500;51.494;5.386;2024-02-14T05:36:46;3.60;;;1.10;;
61709;SDS011;73500;51.494;5.386;2024-02-14T05:39:12;3.20;;;1.35;;
61709;SDS011;73500;51.494;5.386;2024-02-14T05:41:39;2.45;;;1.00;;
61709;SDS011;73500;51.494;5.386;2024-02-14T05:44:04;3.03;;;1.10;;
61709;SDS011;73500;51.494;5.386;2024-02-14T05:46:30;2.75;;;1.10;;
61709;SDS011;73500;51.494;5.386;2024-02-14T05:48:55;3.25;;;1.10;;
61709;SDS011;73500;51.494;5.386;2024-02-14T05:51:22;2.72;;;1.20;;
61709;SDS011;73500;51.494;5.386;2024-02-14T05:53:47;2.90;;;1.20;;
61709;SDS011;73500;51.494;5.386;2024-02-14T05:56:14;2.28;;;0.90;;
61709;SDS011;73500;51.494;5.386;2024-02-14T05:58:39;2.72;;;1.00;;
61709;SDS011;73500;51.494;5.386;2024-02-14T06:01:04;2.40;;;0.98;;
61709;SDS011;73500;51.494;5.386;2024-02-14T06:03:30;3.42;;;1.17;;
61709;SDS011;73500;51.494;5.386;2024-02-14T06:05:55;1.98;;;0.90;;
61709;SDS011;73500;51.494;5.386;2024-02-14T06:08:21;2.25;;;0.90;;
61709;SDS011;73500;51.494;5.386;2024-02-14T06:10:48;2.08;;;0.80;;
61709;SDS011;73500;51.494;5.386;2024-02-14T06:13:14;2.22;;;1.02;;
61709;SDS011;73500;51.494;5.386;2024-02-14T06:15:39;3.05;;;1.00;;
61709;SDS011;73500;51.494;5.386;2024-02-14T06:18:05;1.17;;;0.70;;
61709;SDS011;73500;51.494;5.386;2024-02-14T06:20:31;2.55;;;0.90;;
61709;SDS011;73500;51.494;5.386;2024-02-14T06:22:57;2.65;;;0.90;;
61709;SDS011;73500;51.494;5.386;2024-02-14T06:25:22;1.90;;;0.80;;
61709;SDS011;73500;51.494;5.386;2024-02-14T06:27:47;1.73;;;0.82;;
61709;SDS011;73500;51.494;5.386;2024-02-14T06:30:13;1.20;;;0.70;;
61709;SDS011;73500;51.494;5.386;2024-02-14T06:32:38;2.83;;;0.85;;
61709;SDS011;73500;51.494;5.386;2024-02-14T06:35:04;2.30;;;0.80;;
61709;SDS011;73500;51.494;5.386;2024-02-14T06:37:29;2.70;;;1.00;;
61709;SDS011;73500;51.494;5.386;2024-02-14T06:39:54;1.80;;;0.85;;
61709;SDS011;73500;51.494;5.386;2024-02-14T06:42:20;2.08;;;0.80;;
61709;SDS011;73500;51.494;5.386;2024-02-14T06:44:45;2.60;;;0.80;;
61709;SDS011;73500;51.494;5.386;2024-02-14T06:47:11;2.75;;;1.10;;
61709;SDS011;73500;51.494;5.386;2024-02-14T06:49:36;1.38;;;0.70;;
61709;SDS011;73500;51.494;5.386;2024-02-14T06:52:01;2.28;;;0.80;;
61709;SDS011;73500;51.494;5.386;2024-02-14T06:54:27;1.38;;;0.70;;
61709;SDS011;73500;51.494;5.386;2024-02-14T06:56:52;2.65;;;0.80;;
61709;SDS011;73500;51.494;5.386;2024-02-14T06:59:17;2.78;;;0.90;;
61709;SDS011;73500;51.494;5.386;2024-02-14T07:01:43;1.73;;;0.75;;
61709;SDS011;73500;51.494;5.386;2024-02-14T07:04:08;2.33;;;0.82;;
61709;SDS011;73500;51.494;5.386;2024-02-14T07:06:33;2.15;;;0.80;;
61709;SDS011;73500;51.494;5.386;2024-02-14T07:08:58;2.38;;;0.85;;
61709;SDS011;73500;51.494;5.386;2024-02-14T07:11:24;3.00;;;0.93;;
61709;SDS011;73500;51.494;5.386;2024-02-14T07:13:49;1.95;;;0.90;;
61709;SDS011;73500;51.494;5.386;2024-02-14T07:16:14;2.20;;;0.90;;
61709;SDS011;73500;51.494;5.386;2024-02-14T07:18:40;2.80;;;1.00;;
61709;SDS011;73500;51.494;5.386;2024-02-14T07:21:06;3.00;;;0.90;;
61709;SDS011;73500;51.494;5.386;2024-02-14T07:23:31;3.28;;;0.90;;
61709;SDS011;73500;51.494;5.386;2024-02-14T07:26:00;3.15;;;0.95;;
61709;SDS011;73500;51.494;5.386;2024-02-14T07:28:28;2.67;;;0.98;;
61709;SDS011;73500;51.494;5.386;2024-02-14T07:30:54;2.78;;;0.80;;
61709;SDS011;73500;51.494;5.386;2024-02-14T07:33:19;4.03;;;1.13;;
61709;SDS011;73500;51.494;5.386;2024-02-14T07:35:45;3.03;;;1.00;;
61709;SDS011;73500;51.494;5.386;2024-02-14T07:38:12;3.53;;;1.05;;
61709;SDS011;73500;51.494;5.386;2024-02-14T07:40:37;2.65;;;0.90;;
61709;SDS011;73500;51.494;5.386;2024-02-14T07:43:04;3.15;;;0.93;;
61709;SDS011;73500;51.494;5.386;2024-02-14T07:45:31;2.70;;;0.95;;
61709;SDS011;73500;51.494;5.386;2024-02-14T07:47:56;3.10;;;1.20;;
61709;SDS011;73500;51.494;5.386;2024-02-14T07:50:21;2.53;;;0.90;;
61709;SDS011;73500;51.494;5.386;2024-02-14T07:52:47;3.25;;;1.10;;
61709;SDS011;73500;51.494;5.386;2024-02-14T07:55:12;2.95;;;0.80;;
61709;SDS011;73500;51.494;5.386;2024-02-14T07:57:41;2.83;;;0.90;;
61709;SDS011;73500;51.494;5.386;2024-02-14T08:00:07;3.45;;;1.00;;
61709;SDS011;73500;51.494;5.386;2024-02-14T08:02:35;3.92;;;0.90;;
61709;SDS011;73500;51.494;5.386;2024-02-14T08:05:02;1.73;;;0.80;;
61709;SDS011;73500;51.494;5.386;2024-02-14T08:07:29;2.30;;;0.90;;
61709;SDS011;73500;51.494;5.386;2024-02-14T08:09:55;3.45;;;1.20;;
61709;SDS011;73500;51.494;5.386;2024-02-14T08:12:20;3.10;;;1.00;;
61709;SDS011;73500;51.494;5.386;2024-02-14T08:14:46;2.28;;;0.90;;
61709;SDS011;73500;51.494;5.386;2024-02-14T08:17:12;2.05;;;0.90;;
61709;SDS011;73500;51.494;5.386;2024-02-14T08:19:38;3.13;;;0.88;;
61709;SDS011;73500;51.494;5.386;2024-02-14T08:22:04;2.47;;;1.00;;
61709;SDS011;73500;51.494;5.386;2024-02-14T08:24:30;2.55;;;0.70;;
61709;SDS011;73500;51.494;5.386;2024-02-14T08:26:56;2.25;;;0.90;;
61709;SDS011;73500;51.494;5.386;2024-02-14T08:29:21;3.97;;;0.90;;
61709;SDS011;73500;51.494;5.386;2024-02-14T08:31:47;2.53;;;0.90;;
61709;SDS011;73500;51.494;5.386;2024-02-14T08:34:13;2.28;;;1.00;;
61709;SDS011;73500;51.494;5.386;2024-02-14T08:36:38;3.42;;;1.10;;
61709;SDS011;73500;51.494;5.386;2024-02-14T08:39:09;2.65;;;1.00;;
61709;SDS011;73500;51.494;5.386;2024-02-14T08:41:38;3.80;;;1.52;;
61709;SDS011;73500;51.494;5.386;2024-02-14T08:44:08;6.43;;;1.48;;
61709;SDS011;73500;51.494;5.386;2024-02-14T08:46:33;4.38;;;1.20;;
61709;SDS011;73500;51.494;5.386;2024-02-14T08:49:01;3.33;;;0.88;;
61709;SDS011;73500;51.494;5.386;2024-02-14T08:51:27;4.72;;;1.35;;
61709;SDS011;73500;51.494;5.386;2024-02-14T08:53:53;4.43;;;1.17;;
61709;SDS011;73500;51.494;5.386;2024-02-14T08:56:20;2.85;;;1.10;;
61709;SDS011;73500;51.494;5.386;2024-02-14T08:58:47;4.63;;;1.20;;
61709;SDS011;73500;51.494;5.386;2024-02-14T09:01:13;4.53;;;1.27;;
61709;SDS011;73500;51.494;5.386;2024-02-14T09:03:39;2.33;;;1.20;;
61709;SDS011;73500;51.494;5.386;2024-02-14T09:06:04;3.95;;;1.20;;
61709;SDS011;73500;51.494;5.386;2024-02-14T09:08:30;3.38;;;1.20;;
61709;SDS011;73500;51.494;5.386;2024-02-14T09:10:56;3.20;;;1.05;;
61709;SDS011;73500;51.494;5.386;2024-02-14T09:13:22;3.97;;;1.40;;
61709;SDS011;73500;51.494;5.386;2024-02-14T09:15:47;6.55;;;1.67;;
61709;SDS011;73500;51.494;5.386;2024-02-14T09:18:15;2.67;;;1.17;;
61709;SDS011;73500;51.494;5.386;2024-02-14T09:20:41;3.42;;;1.40;;
61709;SDS011;73500;51.494;5.386;2024-02-14T09:23:11;2.75;;;1.20;;
61709;SDS011;73500;51.494;5.386;2024-02-14T09:25:36;2.85;;;1.08;;
61709;SDS011;73500;51.494;5.386;2024-02-14T09:28:01;2.17;;;0.80;;
61709;SDS011;73500;51.494;5.386;2024-02-14T09:30:28;3.85;;;1.20;;
61709;SDS011;73500;51.494;5.386;2024-02-14T09:32:54;3.67;;;1.10;;
61709;SDS011;73500;51.494;5.386;2024-02-14T09:35:19;4.30;;;1.50;;
61709;SDS011;73500;51.494;5.386;2024-02-14T09:37:45;3.00;;;0.95;;
61709;SDS011;73500;51.494;5.386;2024-02-14T09:40:10;2.05;;;1.00;;
61709;SDS011;73500;51.494;5.386;2024-02-14T09:42:53;3.33;;;1.10;;
61709;SDS011;73500;51.494;5.386;2024-02-14T09:45:19;3.25;;;1.20;;
61709;SDS011;73500;51.494;5.386;2024-02-14T09:47:45;3.35;;;1.00;;
61709;SDS011;73500;51.494;5.386;2024-02-14T09:50:11;3.30;;;1.20;;
61709;SDS011;73500;51.494;5.386;2024-02-14T09:52:37;3.92;;;1.00;;
61709;SDS011;73500;51.494;5.386;2024-02-14T09:55:03;3.30;;;1.00;;
61709;SDS011;73500;51.494;5.386;2024-02-14T09:57:30;4.88;;;1.40;;
61709;SDS011;73500;51.494;5.386;2024-02-14T09:59:56;4.82;;;1.30;;
61709;SDS011;73500;51.494;5.386;2024-02-14T10:02:24;2.72;;;1.25;;
61709;SDS011;73500;51.494;5.386;2024-02-14T10:04:50;2.05;;;0.93;;
61709;SDS011;73500;51.494;5.386;2024-02-14T10:07:15;3.42;;;1.25;;
61709;SDS011;73500;51.494;5.386;2024-02-14T10:09:41;3.22;;;1.10;;
61709;SDS011;73500;51.494;5.386;2024-02-14T10:12:07;4.82;;;1.10;;
61709;SDS011;73500;51.494;5.386;2024-02-14T10:14:36;4.18;;;1.35;;
61709;SDS011;73500;51.494;5.386;2024-02-14T10:17:03;2.92;;;0.98;;
61709;SDS011;73500;51.494;5.386;2024-02-14T10:19:29;4.53;;;1.10;;
61709;SDS011;73500;51.494;5.386;2024-02-14T10:21:57;2.35;;;0.98;;
61709;SDS011;73500;51.494;5.386;2024-02-14T10:24:24;3.08;;;1.13;;
61709;SDS011;73500;51.494;5.386;2024-02-14T10:26:50;4.82;;;1.05;;
61709;SDS011;73500;51.494;5.386;2024-02-14T10:29:15;2.65;;;0.90;;
61709;SDS011;73500;51.494;5.386;2024-02-14T10:31:41;2.50;;;0.95;;
61709;SDS011;73500;51.494;5.386;2024-02-14T10:34:06;2.70;;;1.15;;
61709;SDS011;73500;51.494;5.386;2024-02-14T10:36:33;4.88;;;1.30;;
61709;SDS011;73500;51.494;5.386;2024-02-14T10:39:00;3.17;;;1.00;;
61709;SDS011;73500;51.494;5.386;2024-02-14T10:41:26;3.13;;;1.42;;
61709;SDS011;73500;51.494;5.386;2024-02-14T10:43:52;3.95;;;1.20;;
61709;SDS011;73500;51.494;5.386;2024-02-14T10:46:20;4.90;;;1.20;;
61709;SDS011;73500;51.494;5.386;2024-02-14T10:48:52;3.85;;;1.15;;
61709;SDS011;73500;51.494;5.386;2024-02-14T10:51:21;3.80;;;1.10;;
61709;SDS011;73500;51.494;5.386;2024-02-14T10:53:50;2.20;;;1.13;;
61709;SDS011;73500;51.494;5.386;2024-02-14T10:56:18;3.17;;;1.10;;
61709;SDS011;73500;51.494;5.386;2024-02-14T10:58:45;2.78;;;1.02;;
61709;SDS011;73500;51.494;5.386;2024-02-14T11:01:13;4.53;;;1.23;;
61709;SDS011;73500;51.494;5.386;2024-02-14T11:03:40;3.47;;;1.00;;
61709;SDS011;73500;51.494;5.386;2024-02-14T11:06:06;3.00;;;1.00;;
61709;SDS011;73500;51.494;5.386;2024-02-14T11:08:31;2.90;;;1.33;;
61709;SDS011;73500;51.494;5.386;2024-02-14T11:10:58;3.95;;;1.58;;
61709;SDS011;73500;51.494;5.386;2024-02-14T11:13:25;3.40;;;1.05;;
61709;SDS011;73500;51.494;5.386;2024-02-14T11:15:53;2.95;;;1.20;;
61709;SDS011;73500;51.494;5.386;2024-02-14T11:18:26;1.92;;;0.90;;
61709;SDS011;73500;51.494;5.386;2024-02-14T11:20:52;3.28;;;0.90;;
61709;SDS011;73500;51.494;5.386;2024-02-14T11:23:21;2.10;;;1.00;;
61709;SDS011;73500;51.494;5.386;2024-02-14T11:25:47;3.08;;;0.90;;
61709;SDS011;73500;51.494;5.386;2024-02-14T11:28:13;3.03;;;0.93;;
61709;SDS011;73500;51.494;5.386;2024-02-14T11:30:40;3.67;;;1.25;;
61709;SDS011;73500;51.494;5.386;2024-02-14T11:35:39;2.40;;;0.90;;
61709;SDS011;73500;51.494;5.386;2024-02-14T11:38:05;3.92;;;0.90;;
61709;SDS011;73500;51.494;5.386;2024-02-14T11:40:32;2.55;;;0.80;;
61709;SDS011;73500;51.494;5.386;2024-02-14T11:42:57;1.52;;;0.90;;
61709;SDS011;73500;51.494;5.386;2024-02-14T11:45:22;2.90;;;0.90;;
61709;SDS011;73500;51.494;5.386;2024-02-14T11:47:48;2.83;;;0.88;;
61709;SDS011;73500;51.494;5.386;2024-02-14T11:50:13;3.00;;;1.02;;
61709;SDS011;73500;51.494;5.386;2024-02-14T11:52:39;3.03;;;0.98;;
61709;SDS011;73500;51.494;5.386;2024-02-14T11:55:04;4.45;;;1.45;;
61709;SDS011;73500;51.494;5.386;2024-02-14T11:57:32;3.88;;;1.30;;
61709;SDS011;73500;51.494;5.386;2024-02-14T11:59:57;6.60;;;2.08;;
61709;SDS011;73500;51.494;5.386;2024-02-14T12:02:22;4.57;;;1.50;;
61709;SDS011;73500;51.494;5.386;2024-02-14T12:04:48;5.32;;;1.48;;
61709;SDS011;73500;51.494;5.386;2024-02-14T12:07:15;2.88;;;1.20;;
61709;SDS011;73500;51.494;5.386;2024-02-14T12:09:41;5.00;;;1.65;;
61709;SDS011;73500;51.494;5.386;2024-02-14T12:12:08;2.95;;;1.30;;
61709;SDS011;73500;51.494;5.386;2024-02-14T12:14:34;4.80;;;1.48;;
61709;SDS011;73500;51.494;5.386;2024-02-14T12:16:59;4.35;;;1.20;;
61709;SDS011;73500;51.494;5.386;2024-02-14T12:19:27;4.03;;;1.30;;
61709;SDS011;73500;51.494;5.386;2024-02-14T12:21:53;4.60;;;1.30;;
61709;SDS011;73500;51.494;5.386;2024-02-14T12:24:21;7.38;;;1.30;;
61709;SDS011;73500;51.494;5.386;2024-02-14T12:26:48;3.28;;;1.23;;
61709;SDS011;73500;51.494;5.386;2024-02-14T12:29:13;11.93;;;2.20;;
61709;SDS011;73500;51.494;5.386;2024-02-14T12:31:39;10.90;;;3.13;;
61709;SDS011;73500;51.494;5.386;2024-02-14T12:34:04;14.23;;;2.95;;
61709;SDS011;73500;51.494;5.386;2024-02-14T12:36:29;12.45;;;2.70;;
61709;SDS011;73500;51.494;5.386;2024-02-14T12:38:56;12.30;;;2.70;;
61709;SDS011;73500;51.494;5.386;2024-02-14T12:41:22;14.30;;;3.53;;
61709;SDS011;73500;51.494;5.386;2024-02-14T12:43:49;12.15;;;2.13;;
61709;SDS011;73500;51.494;5.386;2024-02-14T12:46:14;16.25;;;2.80;;
61709;SDS011;73500;51.494;5.386;2024-02-14T12:48:40;17.40;;;3.35;;
61709;SDS011;73500;51.494;5.386;2024-02-14T12:51:06;11.93;;;2.70;;
61709;SDS011;73500;51.494;5.386;2024-02-14T12:53:32;10.48;;;2.65;;
61709;SDS011;73500;51.494;5.386;2024-02-14T12:55:57;11.02;;;2.70;;
61709;SDS011;73500;51.494;5.386;2024-02-14T12:58:23;8.85;;;2.30;;
61709;SDS011;73500;51.494;5.386;2024-02-14T13:00:48;10.30;;;2.20;;
61709;SDS011;73500;51.494;5.386;2024-02-14T13:03:14;13.63;;;2.90;;
61709;SDS011;73500;51.494;5.386;2024-02-14T13:05:39;10.20;;;2.30;;
61709;SDS011;73500;51.494;5.386;2024-02-14T13:08:05;8.05;;;1.70;;
61709;SDS011;73500;51.494;5.386;2024-02-14T13:10:31;6.47;;;1.67;;
61709;SDS011;73500;51.494;5.386;2024-02-14T13:12:56;10.10;;;1.90;;
61709;SDS011;73500;51.494;5.386;2024-02-14T13:15:22;10.07;;;2.30;;
61709;SDS011;73500;51.494;5.386;2024-02-14T13:17:47;13.23;;;2.55;;
61709;SDS011;73500;51.494;5.386;2024-02-14T13:20:13;7.80;;;2.10;;
61709;SDS011;73500;51.494;5.386;2024-02-14T13:22:40;6.72;;;1.85;;
61709;SDS011;73500;51.494;5.386;2024-02-14T13:25:06;4.07;;;1.63;;
61709;SDS011;73500;51.494;5.386;2024-02-14T13:27:32;4.05;;;1.60;;
61709;SDS011;73500;51.494;5.386;2024-02-14T13:29:58;9.15;;;1.92;;
61709;SDS011;73500;51.494;5.386;2024-02-14T13:32:24;6.25;;;1.40;;
61709;SDS011;73500;51.494;5.386;2024-02-14T13:34:50;10.18;;;1.92;;
61709;SDS011;73500;51.494;5.386;2024-02-14T13:37:16;5.65;;;1.70;;
61709;SDS011;73500;51.494;5.386;2024-02-14T13:39:41;7.20;;;1.55;;
61709;SDS011;73500;51.494;5.386;2024-02-14T13:42:06;5.47;;;1.70;;
61709;SDS011;73500;51.494;5.386;2024-02-14T13:44:33;8.68;;;1.35;;
61709;SDS011;73500;51.494;5.386;2024-02-14T13:46:58;4.22;;;1.50;;
61709;SDS011;73500;51.494;5.386;2024-02-14T13:49:24;7.80;;;1.30;;
61709;SDS011;73500;51.494;5.386;2024-02-14T13:51:52;6.63;;;1.73;;
61709;SDS011;73500;51.494;5.386;2024-02-14T13:54:18;6.00;;;1.67;;
61709;SDS011;73500;51.494;5.386;2024-02-14T13:56:44;3.33;;;1.17;;
61709;SDS011;73500;51.494;5.386;2024-02-14T13:59:10;6.35;;;1.50;;
61709;SDS011;73500;51.494;5.386;2024-02-14T14:01:36;4.43;;;1.70;;
61709;SDS011;73500;51.494;5.386;2024-02-14T14:04:02;5.90;;;1.50;;
61709;SDS011;73500;51.494;5.386;2024-02-14T14:06:28;6.35;;;1.27;;
61709;SDS011;73500;51.494;5.386;2024-02-14T14:08:54;5.15;;;1.27;;
61709;SDS011;73500;51.494;5.386;2024-02-14T14:11:19;3.83;;;1.27;;
61709;SDS011;73500;51.494;5.386;2024-02-14T14:13:45;3.10;;;1.00;;
61709;SDS011;73500;51.494;5.386;2024-02-14T14:16:10;4.85;;;1.20;;
61709;SDS011;73500;51.494;5.386;2024-02-14T14:18:36;5.90;;;1.40;;
61709;SDS011;73500;51.494;5.386;2024-02-14T14:21:01;7.57;;;1.58;;
61709;SDS011;73500;51.494;5.386;2024-02-14T14:23:27;4.80;;;1.20;;
61709;SDS011;73500;51.494;5.386;2024-02-14T14:25:53;12.98;;;2.05;;
61709;SDS011;73500;51.494;5.386;2024-02-14T14:28:18;5.40;;;1.40;;
61709;SDS011;73500;51.494;5.386;2024-02-14T14:30:49;5.07;;;1.33;;
61709;SDS011;73500;51.494;5.386;2024-02-14T14:33:15;4.82;;;1.20;;
61709;SDS011;73500;51.494;5.386;2024-02-14T14:35:41;4.25;;;1.27;;
61709;SDS011;73500;51.494;5.386;2024-02-14T14:38:06;3.33;;;1.17;;
61709;SDS011;73500;51.494;5.386;2024-02-14T14:40:32;3.60;;;1.17;;
61709;SDS011;73500;51.494;5.386;2024-02-14T14:42:57;3.55;;;1.10;;